KBMT

Beaumont Municipal Airport

Beaumont, Texas, USA
METAR KBMT 150315Z AUTO 15003KT 10SM CLR 27/24 A2999 RMK AO2 T02700238
Observed Flight Rules
Aug-15 @ 03:15 UTC (20 minutes ago) Visual Flight Rules
Wind Visibility Clouds
150° at 3 knots 10 miles
  • Clear skies
Temperatures Readings
Current 27°C / 81°F
Dewpoint 24°C / 75°F
Humidity 84%
Altimeter 29.99" Hg
Pressure 1016 hPa
Elevation 10
METAR KBMT 150315Z AUTO 15003KT 10SM CLR 27/24 A2999 RMK AO2 T02700238
Observed Flight Rules
Aug-15 @ 03:15 UTC
(20 minutes ago)
VFR
Wind Visibility
150° at 3 knots 10 miles
Clouds
  • Clear skies
Temperature Dewpoint
27°C / 81°F 24°C / 75°F
Humidity Altimeter Pressure
84% 29.99" Hg 1016 hPa